map of LHPA home
LHPA - Airport
Location
City:  Pápa, Veszprém, Hungary
Name:Pápa AB
ICAO:LHPA

Details
Type:Airport (Aerodrome, Airfield)
Use:Military
Latitude:47°21'48"N (47.363333)
Longitude:17°29'47"E (17.496389)
Elevation:480 ft (146 m)
Variation:4.52°E (WMM2015 magnetic declination)
0.12° annual change
Runways:unknown number
Longest:7800 ft (2377 m)

Time
Time Zone:UTC+1 (DST+2)
Local Time:

Weather
METAR:LHPA 220315Z 00000KT 4000 BR MIBCFZFG SCT083 OVC200 M05/M06 Q1017 NOSIG RMK GRN
TAF:LHPA 212315Z 2200/2224 VRB03KT 5000 BR NSC PROB30
TEMPO 2200/2208 1500 BR
BECMG 2208/2211 CAVOK
BECMG 2217/2220 6000 NSC
BECMG 2220/2223 05005KT BKN030 OVC060
TEMPO 2221/2224 5000 BR -SN

Related Locations
Nearby:
Farthest:CHT: 11720 mi / 18862 km
Waitangi [Tuuta], CIT, NZ

Find:

   beyond  
but within

Other Information
Maps:
NOTAMs:
Links:
Sources:

  
  • flag of Hungary
  • flag of Veszprém
  

Sectional Chart

Flight Planning
at skyvector.com

Satellite Image

Google Maps Satellite view

 

Copyright © 2004-2019 Karl L. Swartz. All rights reserved.
The Great Circle Mapper name and logo are trademarks of the Great Circle Mapper.
All other trademarks mentioned herein belong to their respective owners.
Please see credits for attibutions and further copyright information.

  Follow gcmap on Facebook Follow gcmap on Twitter Follow gcmap on Google+ GCmap on LinkedIn

hCard Microformat

Geo Microformat